Flight Track Log - Related Links

Times and Time Zones

All times are in EST time to prevent confusion due to time zone crossing. See the VIR19 flight status page for this flight to view local times or setup timezone preferences in your user account.

Time Position Orientation Groundspeed Altitude Reporting Facility
EST Latitude Longitude Course Direction KTS MPH feet Rate Location/Type
Tue 06:17:32 AM 51.4775 -0.4743 269° West 164 189 600  Level FlightAware ADS-B
Tue 06:17:47 AM 51.4775 -0.4927 271° West 169 194 1,000 1,500 Climbing FlightAware ADS-B
Tue 06:17:52 AM 51.4774 -0.4990 270° West 169 194 1,100 2,000 Climbing FlightAware ADS-B
Tue 06:18:02 AM 51.4774 -0.5115 269° West 168 193 1,500 2,211 Climbing FlightAware ADS-B
Tue 06:18:11 AM 51.4772 -0.5213 269° West 166 191 1,800 2,000 Climbing FlightAware ADS-B
Tue 06:18:17 AM 51.4771 -0.5299 269° West 168 193 2,000 1,714 Climbing FlightAware ADS-B
Tue 06:18:18 AM 51.4771 -0.5312 269° West 167 192 2,000 1,500 Level FlightAware ADS-B
Tue 06:18:29 AM 51.4771 -0.5449 271° West 170 196 2,300 1,600 Climbing FlightAware ADS-B
Tue 06:18:33 AM 51.4776 -0.5500 282° West 177 204 2,400 1,200 Climbing FlightAware ADS-B
Tue 06:18:34 AM 51.4778 -0.5514 283° West 178 205 2,400  Level FlightAware ADS-B
Tue 06:18:37 AM 51.4787 -0.5551 290° West 183 211 2,400 857 Level FlightAware ADS-B
Tue 06:18:41 AM 51.4801 -0.5603 295° West 189 217 2,500 750 Climbing FlightAware ADS-B
Tue 06:18:45 AM 51.4814 -0.5642 298° West 195 224 2,500  Level FlightAware ADS-B
Tue 06:18:49 AM 51.4833 -0.5705 300° West 199 229 2,500 1,000 Level FlightAware ADS-B
Tue 06:18:57 AM 51.4861 -0.5783 301° West 208 239 2,700 1,333 Climbing FlightAware ADS-B
Tue 06:18:58 AM 51.4875 -0.5824 300° West 208 239 2,700 2,000 Level FlightAware ADS-B
Tue 06:19:00 AM 51.4883 -0.5836 300° West 208 239 2,800 1,286 Climbing FlightAware ADS-B
Tue 06:19:12 AM 51.4945 -0.6017 300° West 223 257 3,000 923 Climbing FlightAware ADS-B
Tue 06:19:13 AM 51.4952 -0.6031 299° West 223 257 3,000 1,200 Level FlightAware ADS-B
Tue 06:19:17 AM 51.4970 -0.6091 299° West 227 261 3,100 857 Climbing FlightAware ADS-B
Tue 06:19:27 AM 51.5018 -0.6226 300° West 239 275 3,200 500 Climbing FlightAware ADS-B
Tue 06:19:29 AM 51.5034 -0.6273 299° West 240 276 3,200 1,000 Level FlightAware ADS-B
Tue 06:19:33 AM 51.5053 -0.6319 299° West 242 278 3,300 2,000 Climbing FlightAware ADS-B (EGLF / FAB)
Tue 06:19:35 AM 51.5068 -0.6367 300° West 243 280 3,400 1,714 Climbing FlightAware ADS-B
Tue 06:19:40 AM 51.5100 -0.6444 304° West 246 283 3,500 857 Climbing FlightAware ADS-B
Tue 06:19:42 AM 51.5084 -0.6413 305° West 247 284 3,500 2,000 Level FlightAware ADS-B
Tue 06:19:43 AM 51.5103 -0.6458 308° West 248 285 3,600 3,000 Climbing FlightAware ADS-B
Tue 06:19:44 AM 51.5128 -0.6503 308° West 248 285 3,600 2,000 Level FlightAware ADS-B
Tue 06:19:49 AM 51.5162 -0.6571 314° West 250 288 3,800 1,500 Climbing FlightAware ADS-B
Tue 06:19:52 AM 51.5194 -0.6609 320° Northwest 255 293 3,800 1,500 Level FlightAware ADS-B
Tue 06:19:53 AM 51.5204 -0.6622 320° Northwest 254 292 3,900 3,000 Climbing FlightAware ADS-B
Tue 06:19:54 AM 51.5204 -0.6622 322° Northwest 256 295 3,900 1,200 Level FlightAware ADS-B
Tue 06:19:58 AM 51.5249 -0.6676 327° Northwest 257 296 4,000 1,714 Climbing FlightAware ADS-B
Tue 06:20:01 AM 51.5278 -0.6706 331° Northwest 259 298 4,100 1,500 Climbing FlightAware ADS-B (EGLF / FAB)
Tue 06:20:02 AM 51.5243 -0.6667 329° Northwest 260 299 4,100 3,000 Level FlightAware ADS-B
Tue 06:20:03 AM 51.5304 -0.6725 333° Northwest 260 299 4,200 3,000 Climbing FlightAware ADS-B
Tue 06:20:06 AM 51.5338 -0.6749 336° Northwest 262 302 4,300 1,200 Climbing FlightAware ADS-B
Tue 06:20:13 AM 51.5414 -0.6796 344° North 268 308 4,400 1,636 Climbing FlightAware ADS-B
Tue 06:20:17 AM 51.5463 -0.6816 348° North 271 312 4,600 2,250 Climbing FlightAware ADS-B
Tue 06:20:21 AM 51.5514 -0.6831 352° North 273 314 4,700 2,000 Climbing FlightAware ADS-B
Tue 06:20:23 AM 51.5537 -0.6836 354° North 274 315 4,800 3,000 Climbing FlightAware ADS-B
Tue 06:20:25 AM 51.5562 -0.6840 355° North 274 315 4,900 3,000 Climbing FlightAware ADS-B
Tue 06:20:27 AM 51.5581 -0.6842 356° North 274 315 5,000 2,400 Climbing FlightAware ADS-B
Tue 06:20:30 AM 51.5619 -0.6846 357° North 274 315 5,100 2,571 Climbing FlightAware ADS-B (LERS / REU)
Tue 06:20:41 AM 51.5767 -0.6857 358° North 278 320 5,600 2,500 Climbing FlightAware ADS-B
Tue 06:20:42 AM 51.5753 -0.6857 358° North 278 320 5,600 1,500 Level FlightAware ADS-B
Tue 06:20:45 AM 51.5815 -0.6861 358° North 279 321 5,700 2,571 Climbing FlightAware ADS-B (EGLC / LCY)
Tue 06:20:56 AM 51.5964 -0.6870 358° North 281 323 6,200 2,500 Climbing FlightAware ADS-B
Tue 06:20:57 AM 51.5951 -0.6870 358° North 282 325 6,200 3,000 Level FlightAware ADS-B
Tue 06:21:00 AM 51.6008 -0.6875 357° North 282 325 6,400 2,571 Climbing FlightAware ADS-B (EGLC / LCY)
Tue 06:21:11 AM 51.6157 -0.6887 357° North 283 326 6,800 2,500 Climbing FlightAware ADS-B
Tue 06:21:12 AM 51.6170 -0.6888 357° North 284 327 6,900 2,250 Climbing FlightAware ADS-B
Tue 06:21:19 AM 51.6257 -0.6897 357° North 286 329 7,100 2,308 Climbing FlightAware ADS-B (EGLC / LCY)
Tue 06:21:25 AM 51.6328 -0.6904 357° North 287 330 7,400 2,667 Climbing FlightAware ADS-B
Tue 06:21:28 AM 51.6378 -0.6909 357° North 287 330 7,500 1,333 Climbing FlightAware ADS-B
Tue 06:21:34 AM 51.6456 -0.6917 356° North 286 329 7,600 1,800 Climbing FlightAware ADS-B (EGLC / LCY)
Tue 06:21:38 AM 51.6518 -0.6923 356° North 285 328 7,800 1,600 Climbing FlightAware ADS-B
Tue 06:21:49 AM 51.6655 -0.6941 356° North 287 330 8,000 750 Climbing FlightAware ADS-B (EGLC / LCY)
Tue 06:21:54 AM 51.6720 -0.6949 356° North 288 331 8,000  Level FlightAware ADS-B
Tue 06:21:55 AM 51.6744 -0.6951 356° North 287 330 8,000  Level FlightAware ADS-B
Tue 06:22:09 AM 51.6924 -0.6975 356° North 289 333 8,000  Level FlightAware ADS-B
Tue 06:22:13 AM 51.6950 -0.6978 356° North 289 333 8,000  Level FlightAware ADS-B
Tue 06:22:24 AM 51.7129 -0.6998 356° North 290 334 8,000  Level FlightAware ADS-B
Tue 06:22:33 AM 51.7244 -0.7011 356° North 291 335 8,000  Level FlightAware ADS-B
Tue 06:22:40 AM 51.7340 -0.7020 356° North 291 335 8,000  Level FlightAware ADS-B
Tue 06:22:49 AM 51.7431 -0.7030 356° North 291 335 8,000  Level FlightAware ADS-B
Tue 06:22:55 AM 51.7545 -0.7041 356° North 292 336 8,000  Level FlightAware ADS-B
Tue 06:23:06 AM 51.7684 -0.7056 357° North 293 337 8,000  Level FlightAware ADS-B (EGLC / LCY)
Tue 06:23:11 AM 51.7759 -0.7063 356° North 293 337 8,000 900 Level FlightAware ADS-B
Tue 06:23:26 AM 51.7970 -0.7084 357° North 299 344 8,300 2,323 Climbing FlightAware ADS-B
Tue 06:23:42 AM 51.8174 -0.7105 356° North 290 334 9,200 2,710 Climbing FlightAware ADS-B (EGLC / LCY)
Tue 06:23:57 AM 51.8348 -0.7126 356° North 293 337 9,700 2,000 Climbing FlightAware ADS-B (EGLC / LCY)
Tue 06:24:27 AM 51.8789 -0.7182 355° North 303 349 10,700 1,935 Climbing FlightAware ADS-B
Tue 06:24:28 AM 51.8810 -0.7183 356° North 295 339 10,700 774 Level FlightAware ADS-B
Tue 06:24:58 AM 51.9247 -0.7239 356° North 334 384 11,100 774 Climbing FlightAware ADS-B
Tue 06:24:59 AM 51.9273 -0.7241 356° North 336 387 11,100 1,161 Level FlightAware ADS-B
Tue 06:25:29 AM 51.9744 -0.7296 356° North 358 412 11,700 1,053 Climbing FlightAware ADS-B
Tue 06:25:56 AM 52.0203 -0.7356 355° North 382 440 12,100 800 Climbing FlightAware ADS-B
Tue 06:25:59 AM 52.0262 -0.7364 355° North 385 443 12,100 1,125 Level FlightAware ADS-B
Tue 06:26:28 AM 52.0784 -0.7446 353° North 399 459 12,700 1,297 Climbing FlightAware ADS-B
Tue 06:26:36 AM 52.0929 -0.7491 347° North 402 463 12,900 1,667 Climbing FlightAware ADS-B
Tue 06:26:46 AM 52.1108 -0.7580 339° North 403 464 13,200 706 Climbing FlightAware ADS-B
Tue 06:26:53 AM 52.1027 -0.7530 343° North 402 463 13,100 2,160 Descending FlightAware ADS-B (KALB)
Tue 06:27:11 AM 52.1514 -0.7853 336° Northwest 403 464 14,100 3,000 Climbing FlightAware ADS-B (KALB)
Tue 06:27:17 AM 52.1639 -0.7945 338° Northwest 406 467 14,300 2,182 Climbing FlightAware ADS-B
Tue 06:27:22 AM 52.1730 -0.8003 336° Northwest 403 464 14,500 2,000 Climbing FlightAware ADS-B (EGNR / CEG)
Tue 06:27:47 AM 52.2172 -0.8303 337° Northwest 411 473 15,300 1,946 Climbing FlightAware ADS-B
Tue 06:27:59 AM 52.2388 -0.8450 337° Northwest 414 476 15,700 2,129 Climbing FlightAware ADS-B
Tue 06:28:18 AM 52.2719 -0.8701 335° Northwest 417 480 16,400 2,400 Climbing FlightAware ADS-B
Tue 06:28:29 AM 52.2898 -0.8853 333° Northwest 420 483 16,900 2,471 Climbing FlightAware ADS-B
Tue 06:28:35 AM 52.2940 -0.8882 333° Northwest 420 483 17,100 2,100 Climbing FlightAware ADS-B
Tue 06:28:49 AM 52.3254 -0.9136 334° Northwest 424 488 17,600 2,286 Climbing FlightAware ADS-B
Tue 06:29:17 AM 52.3751 -0.9536 333° Northwest 420 483 18,700 2,471 Climbing FlightAware ADS-B (KCCR)
Tue 06:29:23 AM 52.3852 -0.9622 334° Northwest 426 490 19,000 3,000 Climbing FlightAware ADS-B
Tue 06:29:27 AM 52.3808 -0.9581 334° Northwest 425 489 19,200 3,429 Climbing FlightAware ADS-B (KALB)
Tue 06:29:37 AM 52.4056 -0.9794 334° Northwest 420 483 19,800 3,111 Climbing FlightAware ADS-B
Tue 06:29:54 AM 52.4396 -1.0060 334° Northwest 420 483 20,600 3,143 Climbing FlightAware ADS-B
Tue 06:29:58 AM 52.4444 -1.0103 334° Northwest 420 483 20,900 2,471 Climbing FlightAware ADS-B (EGLF / FAB)
Tue 06:30:11 AM 52.4444 -1.0103 334° Northwest 420 483 21,300 2,077 Climbing FlightAware ADS-B (EGLF / FAB)
Tue 06:30:24 AM 52.4920 -1.0485 334° Northwest 421 484 21,800 2,211 Climbing FlightAware ADS-B
Tue 06:30:30 AM 52.5017 -1.0570 333° Northwest 414 476 22,000 2,100 Climbing FlightAware ADS-B (EGNR / CEG)
Tue 06:30:44 AM 52.5238 -1.0741 334° Northwest 421 484 22,500 2,160 Climbing FlightAware ADS-B (EGLF / FAB)
Tue 06:30:55 AM 52.5465 -1.0941 333° Northwest 423 487 22,900 2,625 Climbing FlightAware ADS-B
Tue 06:31:00 AM 52.5534 -1.0985 334° Northwest 424 488 23,200 2,333 Climbing FlightAware ADS-B (EGLF / FAB)
Tue 06:31:13 AM 52.5754 -1.1170 334° Northwest 424 488 23,600 1,929 Climbing FlightAware ADS-B
Tue 06:31:28 AM 52.6030 -1.1399 334° Northwest 424 488 24,100 2,000 Climbing FlightAware ADS-B
Tue 06:31:43 AM 52.6282 -1.1601 334° Northwest 426 490 24,600 2,129 Climbing FlightAware ADS-B (EGLF / FAB)
Tue 06:31:59 AM 52.6585 -1.1848 333° Northwest 427 491 25,200 2,000 Climbing FlightAware ADS-B
Tue 06:32:07 AM 52.6723 -1.1965 334° Northwest 429 494 25,400 1,875 Climbing FlightAware ADS-B
Tue 06:32:31 AM 52.7154 -1.2316 333° Northwest 431 496 26,200 2,229 Climbing FlightAware ADS-B
Tue 06:32:42 AM 52.7342 -1.2478 333° Northwest 428 493 26,700 3,111 Climbing FlightAware ADS-B (KCCR)
Tue 06:32:58 AM 52.7633 -1.2709 334° Northwest 423 487 27,600 2,857 Climbing FlightAware ADS-B
Tue 06:33:03 AM 52.7713 -1.2783 333° Northwest 423 487 27,700 2,800 Climbing FlightAware ADS-B
Tue 06:33:13 AM 52.7798 -1.2854 334° Northwest 419 482 28,300 2,545 Climbing FlightAware ADS-B
Tue 06:33:36 AM 52.8276 -1.3253 333° Northwest 413 475 29,100 2,222 Climbing FlightAware ADS-B
Tue 06:33:40 AM 52.8354 -1.3310 333° Northwest 412 474 29,300 2,400 Climbing FlightAware ADS-B
Tue 06:33:56 AM 52.8285 -1.3252 333° Northwest 412 474 29,900 1,286 Climbing FlightAware ADS-B (EGXU / HRT)
Tue 06:34:08 AM 52.8822 -1.3708 333° Northwest 414 476 29,900 353 Level FlightAware ADS-B
Tue 06:34:13 AM 52.8912 -1.3778 334° Northwest 414 476 30,000 286 Climbing FlightAware ADS-B
Tue 06:34:29 AM 52.9176 -1.3992 333° Northwest 413 475 30,000  Level FlightAware ADS-B (EGXU / HRT)
Tue 06:34:38 AM 52.9343 -1.4134 333° Northwest 413 475 30,000  Level FlightAware ADS-B
Tue 06:35:01 AM 52.9730 -1.4460 333° Northwest 411 473 30,000  Level FlightAware ADS-B (EGGP / LPL)
Tue 06:35:09 AM 52.9873 -1.4572 333° Northwest 411 473 30,000  Level FlightAware ADS-B
Tue 06:35:34 AM 53.0293 -1.4928 333° Northwest 411 473 30,000  Level FlightAware ADS-B
Tue 06:35:41 AM 53.0411 -1.5026 333° Northwest 411 473 30,000  Level FlightAware ADS-B
Tue 06:36:03 AM 53.0759 -1.5310 333° Northwest 411 473 30,000  Level FlightAware ADS-B (EGCW)
Tue 06:36:12 AM 53.0933 -1.5467 333° Northwest 410 472 30,000  Level FlightAware ADS-B
Tue 06:36:33 AM 53.1275 -1.5751 333° Northwest 411 473 30,000  Level FlightAware ADS-B (EGCW)
Tue 06:36:44 AM 53.1488 -1.5937 333° Northwest 411 473 30,000  Level FlightAware ADS-B
Tue 06:36:52 AM 53.1623 -1.6037 334° Northwest 410 472 30,000  Level FlightAware ADS-B
Tue 06:37:02 AM 53.1790 -1.6181 334° Northwest 411 473 30,000  Level FlightAware ADS-B
Tue 06:37:15 AM 53.1998 -1.6367 333° Northwest 411 473 30,000  Level FlightAware ADS-B
Tue 06:37:32 AM 53.2294 -1.6610 333° Northwest 411 473 30,000  Level FlightAware ADS-B (EGCW)
Tue 06:37:49 AM 53.2585 -1.6853 333° Northwest 411 473 30,000  Level FlightAware ADS-B
Tue 06:37:50 AM 53.2594 -1.6867 334° Northwest 410 472 30,000  Level FlightAware ADS-B
Tue 06:38:02 AM 53.2799 -1.7039 334° Northwest 410 472 30,000  Level FlightAware ADS-B
Tue 06:38:17 AM 53.3056 -1.7254 334° Northwest 410 472 30,000  Level FlightAware ADS-B
Tue 06:38:29 AM 53.3258 -1.7428 333° Northwest 411 473 30,000  Level FlightAware ADS-B
Tue 06:38:30 AM 53.3276 -1.7442 334° Northwest 410 472 30,000  Level FlightAware ADS-B
Tue 06:39:02 AM 53.3808 -1.7902 333° Northwest 403 464 30,000  Level FlightAware ADS-B
Tue 06:39:16 AM 53.4059 -1.8118 332° Northwest 404 465 30,000  Level FlightAware ADS-B
Tue 06:39:33 AM 53.4337 -1.8350 333° Northwest 411 473 30,000  Level FlightAware ADS-B
Tue 06:39:46 AM 53.4540 -1.8523 333° Northwest 403 464 30,000  Level FlightAware ADS-B
Tue 06:39:56 AM 53.4727 -1.8681 332° Northwest 403 464 30,000  Level FlightAware ADS-B
Tue 06:40:01 AM 53.4815 -1.8753 332° Northwest 403 464 30,000  Level FlightAware ADS-B (EGGP / LPL)
Tue 06:40:04 AM 53.4859 -1.8798 333° Northwest 410 472 30,000  Level FlightAware ADS-B
Tue 06:40:14 AM 53.5040 -1.8957 333° Northwest 410 472 30,000  Level FlightAware ADS-B
Tue 06:40:34 AM 53.5367 -1.9232 332° Northwest 402 463 30,000  Level FlightAware ADS-B
Tue 06:40:53 AM 53.5686 -1.9508 332° Northwest 402 463 30,000  Level FlightAware ADS-B
Tue 06:41:00 AM 53.5799 -1.9608 332° Northwest 402 463 30,000  Level FlightAware ADS-B (EGGP / LPL)
Tue 06:41:13 AM 53.6016 -1.9797 333° Northwest 409 471 30,000  Level FlightAware ADS-B (EGXU / HRT)
Tue 06:41:17 AM 53.6089 -1.9855 333° Northwest 409 471 30,000  Level FlightAware ADS-B (EGNT / NCL)
Tue 06:41:21 AM 53.6164 -1.9928 332° Northwest 401 461 30,000  Level FlightAware ADS-B (EGNR / CEG)
Tue 06:41:33 AM 53.6356 -2.0088 332° Northwest 401 461 30,000  Level FlightAware ADS-B
Tue 06:41:47 AM 53.6591 -2.0291 332° Northwest 400 460 30,000  Level FlightAware ADS-B (EGGP / LPL)
Tue 06:41:59 AM 53.6797 -2.0465 332° Northwest 401 461 30,000  Level FlightAware ADS-B
Tue 06:42:18 AM 53.7118 -2.0741 332° Northwest 401 461 30,000  Level FlightAware ADS-B
Tue 06:42:48 AM 53.7598 -2.1127 336° Northwest 411 473 30,000  Level FlightAware ADS-B
Tue 06:43:01 AM 53.7851 -2.1314 337° Northwest 404 465 30,000  Level FlightAware ADS-B (EGNR / CEG)
Tue 06:43:30 AM 53.8363 -2.1663 339° North 412 474 30,000  Level FlightAware ADS-B
Tue 06:43:45 AM 53.8592 -2.1818 338° Northwest 412 474 30,000  Level FlightAware ADS-B
Tue 06:44:16 AM 53.9170 -2.2213 338° Northwest 412 474 30,000  Level FlightAware ADS-B
Tue 06:44:48 AM 53.9735 -2.2600 338° Northwest 412 474 30,000  Level FlightAware ADS-B (EGCW)
Tue 06:45:19 AM 54.0284 -2.2978 338° Northwest 412 474 30,000  Level FlightAware ADS-B
Tue 06:45:49 AM 54.0824 -2.3344 338° Northwest 412 474 30,000  Level FlightAware ADS-B (EGNT / NCL)
Tue 06:46:20 AM 54.1324 -2.3698 338° Northwest 411 473 30,000  Level FlightAware ADS-B (EGNT / NCL)
Tue 06:46:39 AM 54.1707 -2.3955 337° Northwest 404 465 30,000  Level FlightAware ADS-B
Tue 06:46:56 AM 54.1999 -2.4163 337° Northwest 404 465 30,000  Level FlightAware ADS-B (EGNR / CEG)
Tue 06:47:30 AM 54.2599 -2.4578 338° Northwest 410 472 30,000  Level FlightAware ADS-B (EGNT / NCL)
Tue 06:47:45 AM 54.2868 -2.4762 337° Northwest 403 464 30,000  Level FlightAware ADS-B
Tue 06:47:53 AM 54.3003 -2.4860 337° Northwest 403 464 30,000  Level FlightAware ADS-B
Tue 06:48:01 AM 54.3146 -2.4959 337° Northwest 403 464 30,000  Level FlightAware ADS-B
Tue 06:48:33 AM 54.3702 -2.5351 338° Northwest 412 474 30,000  Level FlightAware ADS-B (EGPH / EDI)
Tue 06:49:07 AM 54.4283 -2.5761 338° Northwest 412 474 30,000  Level FlightAware ADS-B
Tue 06:49:38 AM 54.4783 -2.6107 338° Northwest 412 474 30,000  Level FlightAware ADS-B (EGCC / MAN)
Tue 06:50:11 AM 54.5430 -2.6567 338° Northwest 411 473 30,000  Level FlightAware ADS-B (EGNT / NCL)
Tue 06:50:41 AM 54.5964 -2.6948 338° Northwest 412 474 30,000  Level FlightAware UK
Tue 06:50:51 AM 54.6095 -2.7041 338° Northwest 412 474 30,000  Level FlightAware ADS-B (EGNT / NCL)
Tue 06:51:21 AM 54.6583 -2.7393 338° Northwest 411 473 30,000  Level FlightAware ADS-B (EGNT / NCL)
Tue 06:51:50 AM 54.7144 -2.7869 327° Northwest 399 459 30,000  Level FlightAware ADS-B (EGNR / CEG)
Tue 06:52:20 AM 54.7587 -2.8452 322° Northwest 405 466 30,000  Level FlightAware ADS-B (EGNT / NCL)
Tue 06:52:58 AM 54.8149 -2.9222 321° Northwest 400 460 30,000  Level FlightAware ADS-B
Tue 06:53:30 AM 54.8611 -2.9874 321° Northwest 405 466 30,000  Level FlightAware ADS-B (EGPH / EDI)
Tue 06:53:41 AM 54.8782 -3.0100 321° Northwest 405 466 30,000  Level FlightAware ADS-B (EGNT / NCL)
Tue 06:54:00 AM 54.9038 -3.0468 320° Northwest 399 459 30,000  Level FlightAware ADS-B
Tue 06:54:23 AM 54.9394 -3.0958 320° Northwest 399 459 30,000  Level FlightAware ADS-B
Tue 06:54:51 AM 54.9794 -3.1532 320° Northwest 401 461 30,000  Level FlightAware ADS-B
Tue 06:55:12 AM 55.0106 -3.1965 320° Northwest 402 463 30,000  Level FlightAware ADS-B
Tue 06:55:17 AM 55.0149 -3.2026 320° Northwest 401 461 30,000  Level FlightAware ADS-B
Tue 06:55:21 AM 55.0225 -3.2130 320° Northwest 401 461 30,000  Level FlightAware ADS-B
Tue 06:55:49 AM 55.0635 -3.2711 320° Northwest 402 463 30,000  Level FlightAware ADS-B
Tue 06:56:03 AM 55.0848 -3.3021 321° Northwest 409 471 30,000  Level FlightAware ADS-B (EGPH / EDI)
Tue 06:56:07 AM 55.0909 -3.3105 320° Northwest 403 464 30,000 480 Level FlightAware ADS-B (EGNR / CEG)
Tue 06:56:28 AM 55.1225 -3.3542 320° Northwest 403 464 30,200 1,111 Climbing FlightAware ADS-B (EGNR / CEG)
Tue 06:57:01 AM 55.1710 -3.4234 321° Northwest 414 476 31,000 1,429 Climbing FlightAware ADS-B
Tue 06:57:31 AM 55.2130 -3.4848 321° Northwest 414 476 31,700 1,475 Climbing FlightAware ADS-B
Tue 06:58:02 AM 55.2612 -3.5525 321° Northwest 416 479 32,500 1,238 Climbing FlightAware ADS-B
Tue 06:58:34 AM 55.3084 -3.6212 321° Northwest 421 484 33,000 857 Climbing FlightAware ADS-B
Tue 06:58:44 AM 55.3220 -3.6408 320° Northwest 416 479 33,100 563 Climbing FlightAware ADS-B
Tue 06:59:06 AM 55.3568 -3.6912 321° Northwest 428 493 33,300 706 Climbing FlightAware ADS-B (EGPH / EDI)
Tue 06:59:18 AM 55.3751 -3.7177 320° Northwest 423 487 33,500 667 Climbing FlightAware ADS-B
Tue 06:59:24 AM 55.3759 -3.7178 320° Northwest 424 488 33,500 769 Level FlightAware ADS-B
Tue 06:59:57 AM 55.4359 -3.8050 321° Northwest 438 504 34,000 469 Climbing FlightAware ADS-B (KHWO)
Tue 07:00:28 AM 55.4839 -3.8753 321° Northwest 438 504 34,000  Level FlightAware ADS-B (EGPH / EDI)
Tue 07:00:59 AM 55.5339 -3.9480 321° Northwest 438 504 34,000  Level FlightAware ADS-B
Tue 07:01:31 AM 55.5830 -4.0188 320° Northwest 439 505 34,000  Level FlightAware ADS-B
Tue 07:02:06 AM 55.6365 -4.0971 320° Northwest 443 510 34,000  Level FlightAware ADS-B
Tue 07:02:43 AM 55.6954 -4.1849 320° Northwest 442 509 34,000  Level FlightAware ADS-B (EGPH / EDI)
Tue 07:03:13 AM 55.7430 -4.2548 320° Northwest 442 509 34,000  Level FlightAware ADS-B
Tue 07:03:44 AM 55.7915 -4.3270 320° Northwest 444 511 34,000  Level FlightAware ADS-B
Tue 07:04:21 AM 55.8495 -4.4137 320° Northwest 445 512 34,000  Level FlightAware ADS-B
Tue 07:04:47 AM 55.8915 -4.4750 320° Northwest 447 514 34,000  Level FlightAware ADS-B
Tue 07:05:26 AM 55.9528 -4.5687 318° Northwest 448 516 34,000  Level FlightAware ADS-B
Tue 07:05:59 AM 56.0029 -4.6501 317° Northwest 441 507 34,000  Level FlightAware ADS-B
Tue 07:06:20 AM 56.0348 -4.7019 317° Northwest 439 505 34,000  Level FlightAware ADS-B (KHWO)
Tue 07:06:55 AM 56.0881 -4.7876 318° Northwest 446 513 34,000  Level FlightAware ADS-B
Tue 07:07:28 AM 56.1368 -4.8638 318° Northwest 446 513 34,000  Level FlightAware ADS-B
Tue 07:07:58 AM 56.1819 -4.9379 318° Northwest 449 517 34,000  Level FlightAware ADS-B
Tue 07:08:34 AM 56.2413 -5.0322 318° Northwest 453 521 34,000  Level FlightAware ADS-B (EGPH / EDI)
Tue 07:09:06 AM 56.2907 -5.1126 318° Northwest 453 521 34,000  Level FlightAware ADS-B
Tue 07:09:47 AM 56.3543 -5.2158 318° Northwest 453 521 34,000  Level FlightAware ADS-B (EGPH / EDI)
Tue 07:10:22 AM 56.4103 -5.3072 318° Northwest 454 522 34,000  Level FlightAware UK
Tue 07:10:30 AM 56.4090 -5.3045 318° Northwest 452 520 34,000  Level FlightAware ADS-B
Tue 07:11:05 AM 56.4752 -5.4135 318° Northwest 453 521 34,000  Level FlightAware ADS-B
Tue 07:11:35 AM 56.5226 -5.4901 318° Northwest 452 520 34,000  Level FlightAware ADS-B
Tue 07:12:10 AM 56.5754 -5.5786 317° Northwest 449 517 34,000  Level FlightAware ADS-B (EGPH / EDI)
Tue 07:12:19 AM 56.5832 -5.5915 318° Northwest 449 517 34,000  Level FlightAware ADS-B
Tue 07:12:50 AM 56.6371 -5.6804 317° Northwest 449 517 34,000  Level FlightAware ADS-B (EGPH / EDI)
Tue 07:13:27 AM 56.6935 -5.7749 317° Northwest 450 518 34,000  Level FlightAware ADS-B (EGPH / EDI)
Tue 07:13:44 AM 56.7203 -5.8185 317° Northwest 446 513 34,000  Level FlightAware ADS-B
Tue 07:14:17 AM 56.7707 -5.9035 317° Northwest 454 522 34,000  Level FlightAware ADS-B
Tue 07:14:48 AM 56.8177 -5.9812 317° Northwest 454 522 34,000  Level FlightAware ADS-B
Tue 07:15:28 AM 56.8814 -6.0904 317° Northwest 456 525 34,000  Level FlightAware UK
Tue 07:15:34 AM 56.8906 -6.1059 316° Northwest 448 516 34,000  Level FlightAware ADS-B (KHWO)
Tue 07:16:27 AM 56.9712 -6.2413 317° Northwest 446 513 34,000  Level FlightAware ADS-B (KHWO)
Tue 07:17:04 AM 57.0280 -6.3399 317° Northwest 450 518 34,000  Level FlightAware UK
Tue 07:17:26 AM 57.0600 -6.3945 316° Northwest 444 511 34,000  Level FlightAware ADS-B (KHWO)
Tue 07:18:08 AM 57.1246 -6.5037 317° Northwest 448 516 34,000  Level FlightAware ADS-B (KHWO)
Tue 07:18:38 AM 57.1696 -6.5820 317° Northwest 448 516 34,000  Level FlightAware ADS-B (KHWO)
Tue 07:18:40 AM 57.1729 -6.5894 317° Northwest 448 516 34,000  Level FlightAware UK
Tue 07:19:10 AM 57.2181 -6.6674 317° Northwest 448 516 34,000  Level FlightAware UK
Tue 07:19:40 AM 57.2631 -6.7458 317° Northwest 448 516 34,000  Level FlightAware UK
Tue 07:20:10 AM 57.3081 -6.8244 317° Northwest 448 516 34,000  Level FlightAware UK
Tue 07:20:29 AM 57.3682 -6.9302 316° Northwest 448 516 34,000  Level FlightAware ADS-B (EGPH / EDI)
Tue 07:20:40 AM 57.3531 -6.9033 317° Northwest 448 516 34,000  Level FlightAware UK
Tue 07:21:10 AM 57.3979 -6.9826 316° Northwest 448 516 34,000  Level FlightAware UK
Tue 07:21:40 AM 57.4430 -7.0620 316° Northwest 450 518 34,000  Level FlightAware UK
Tue 07:22:10 AM 57.4880 -7.1415 317° Northwest 450 518 34,000  Level FlightAware UK
Tue 07:22:40 AM 57.5331 -7.2217 316° Northwest 450 518 34,000  Level FlightAware UK
Tue 07:23:10 AM 57.5782 -7.3022 316° Northwest 450 518 34,000  Level FlightAware UK
Tue 07:23:40 AM 57.6231 -7.3826 316° Northwest 450 518 34,000  Level FlightAware UK
Tue 07:24:10 AM 57.6680 -7.4631 316° Northwest 450 518 34,000  Level FlightAware UK
Tue 07:24:40 AM 57.7128 -7.5436 316° Northwest 450 518 34,000  Level FlightAware UK
Tue 07:25:10 AM 57.7574 -7.6247 316° Northwest 450 518 34,000  Level FlightAware UK
Tue 07:25:46 AM 57.8107 -7.7216 316° Northwest 450 518 34,000  Level FlightAware UK
Tue 07:26:16 AM 57.8553 -7.8031 316° Northwest 450 518 34,000  Level FlightAware UK
Tue 07:26:46 AM 57.8998 -7.8847 316° Northwest 450 518 34,000  Level FlightAware UK
Tue 07:27:16 AM 57.9443 -7.9661 316° Northwest 448 516 34,000  Level FlightAware UK
Tue 07:27:46 AM 57.9886 -8.0477 316° Northwest 448 516 34,000  Level FlightAware UK
Tue 07:28:16 AM 58.0327 -8.1297 315° West 450 518 34,000 600 Level FlightAware UK
Tue 07:28:46 AM 58.0770 -8.2121 315° West 450 518 34,600 1,000 Climbing FlightAware UK
Tue 07:29:16 AM 58.1211 -8.2947 315° West 450 518 35,000 400 Climbing FlightAware UK
Tue 07:29:46 AM 58.1653 -8.3773 315° West 448 516 35,000  Level FlightAware UK
Tue 07:30:16 AM 58.2095 -8.4600 315° West 448 516 35,000  Level FlightAware UK
Tue 07:30:46 AM 58.2534 -8.5427 315° West 446 513 35,000  Level FlightAware UK
Tue 07:31:16 AM 58.2970 -8.6254 315° West 446 513 35,000  Level FlightAware UK
Tue 07:31:46 AM 58.3407 -8.7080 315° West 446 513 35,000  Level FlightAware UK
Tue 07:32:16 AM 58.3841 -8.7912 315° West 446 513 35,000  Level FlightAware UK
Tue 07:32:46 AM 58.4278 -8.8744 315° West 446 513 35,000  Level FlightAware UK
Tue 07:33:16 AM 58.4713 -8.9581 315° West 448 516 35,000 Level FlightAware UK
Tue 07:35:00 AM 58.6099 -9.2883 309° West  Level Estimated
Tue 07:42:00 AM 59.1608 -10.6487 309° West  Level Estimated
Tue 07:43:00 AM 59.2384 -10.8466 308° West  Level Estimated
Tue 07:44:00 AM 59.3156 -11.0454 307° West  Level Estimated
Tue 07:45:00 AM 59.3925 -11.2451 307° West  Level Estimated
Tue 07:46:00 AM 59.4691 -11.4457 307° West  Level Estimated
Tue 07:47:00 AM 59.5454 -11.6472 307° West  Level Estimated
Tue 07:48:00 AM 59.6214 -11.8496 307° West  Level Estimated
Tue 07:49:00 AM 59.6971 -12.0530 306° West  Level Estimated
Tue 07:50:00 AM 59.7724 -12.2572 306° West  Level Estimated
Tue 07:51:00 AM 59.8475 -12.4624 306° West  Level Estimated
Tue 07:52:00 AM 59.9222 -12.6685 306° West  Level Estimated
Tue 07:53:00 AM 59.9966 -12.8756 306° West  Level Estimated
Tue 07:54:00 AM 60.0707 -13.0836 306° West  Level Estimated
Tue 07:55:00 AM 60.1445 -13.2925 305° West  Level Estimated
Tue 07:56:00 AM 60.2179 -13.5023 305° West  Level Estimated
Tue 07:57:00 AM 60.2910 -13.7131 305° West  Level Estimated
Tue 07:58:00 AM 60.3637 -13.9248 305° West  Level Estimated
Tue 07:59:00 AM 60.4361 -14.1375 305° West  Level Estimated
Tue 08:00:00 AM 60.5082 -14.3511 304° West  Level Estimated
Tue 08:01:00 AM 60.5799 -14.5657 304° West  Level Estimated
Tue 08:02:00 AM 60.6513 -14.7812 304° West  Level Estimated
Tue 08:03:00 AM 60.7223 -14.9977 304° West  Level Estimated
Tue 08:04:00 AM 60.7930 -15.2151 304° West  Level Estimated
Tue 08:05:00 AM 60.8634 -15.4335 304° West  Level Estimated
Tue 08:06:00 AM 60.9333 -15.6529 303° West  Level Estimated
Tue 08:07:00 AM 61.0029 -15.8732 303° West  Level Estimated
Tue 08:08:00 AM 61.0722 -16.0944 303° West  Level Estimated
Tue 08:09:00 AM 61.1411 -16.3167 303° West  Level Estimated
Tue 08:10:00 AM 61.2096 -16.5399 303° West  Level Estimated
Tue 08:11:00 AM 61.2778 -16.7641 302° West  Level Estimated
Tue 08:12:00 AM 61.3456 -16.9893 302° West  Level Estimated
Tue 08:13:00 AM 61.4130 -17.2154 302° West  Level Estimated
Tue 08:14:00 AM 61.4800 -17.4425 302° West  Level Estimated
Tue 08:15:00 AM 61.5467 -17.6706 302° West  Level Estimated
Tue 08:16:00 AM 61.6130 -17.8997 301° West  Level Estimated
Tue 08:17:00 AM 61.6789 -18.1297 301° West  Level Estimated
Tue 08:18:00 AM 61.7444 -18.3608 301° West  Level Estimated
Tue 08:19:00 AM 61.8095 -18.5928 301° West  Level Estimated
Tue 08:20:00 AM 61.8742 -18.8258 301° West  Level Estimated
Tue 08:21:00 AM 61.9385 -19.0598 300° West  Level Estimated
Tue 08:22:00 AM 62.0025 -19.2947 300° West  Level Estimated
Tue 08:23:00 AM 62.0660 -19.5307 300° West  Level Estimated
Tue 08:24:00 AM 62.1291 -19.7676 300° West  Level Estimated
Tue 08:25:00 AM 62.1918 -20.0056 300° West  Level Estimated
Tue 08:26:00 AM 62.2541 -20.2444 299° West  Level Estimated
Tue 08:27:00 AM 62.3160 -20.4844 299° West  Level Estimated
Tue 08:28:00 AM 62.3775 -20.7252 299° West  Level Estimated
Tue 08:29:00 AM 62.4386 -20.9671 299° West  Level Estimated
Tue 08:30:00 AM 62.4992 -21.2099 298° West  Level Estimated
Tue 08:31:00 AM 62.5594 -21.4538 298° West  Level Estimated
Tue 08:32:00 AM 62.6192 -21.6986 298° West  Level Estimated
Tue 08:33:00 AM 62.6786 -21.9444 298° West  Level Estimated
Tue 08:34:00 AM 62.7375 -22.1912 298° West  Level Estimated
Tue 08:35:00 AM 62.7960 -22.4390 297° West  Level Estimated
Tue 08:36:00 AM 62.8541 -22.6878 297° West  Level Estimated
Tue 08:37:00 AM 62.9117 -22.9375 297° West  Level Estimated
Tue 08:38:00 AM 62.9689 -23.1882 297° West  Level Estimated
Tue 08:39:00 AM 63.0256 -23.4399 297° West  Level Estimated
Tue 08:40:00 AM 63.0819 -23.6926 296° West  Level Estimated
Tue 08:41:00 AM 63.1377 -23.9463 296° West  Level Estimated
Tue 08:42:00 AM 63.1931 -24.2009 296° West  Level Estimated
Tue 08:43:00 AM 63.2480 -24.4565 296° West  Level Estimated
Tue 08:44:00 AM 63.3025 -24.7131 295° West  Level Estimated
Tue 08:45:00 AM 63.3564 -24.9706 295° West  Level Estimated
Tue 08:46:00 AM 63.4100 -25.2291 295° West  Level Estimated
Tue 08:47:00 AM 63.4630 -25.4886 295° West  Level Estimated
Tue 08:48:00 AM 63.5156 -25.7490 294° West  Level Estimated
Tue 08:49:00 AM 63.5677 -26.0104 294° West  Level Estimated
Tue 08:50:00 AM 63.6194 -26.2727 294° West  Level Estimated
Tue 08:51:00 AM 63.6705 -26.5360 294° West  Level Estimated
Tue 08:52:00 AM 63.7212 -26.8002 294° West  Level Estimated
Tue 08:53:00 AM 63.7714 -27.0654 293° West  Level Estimated
Tue 08:54:00 AM 63.8211 -27.3316 293° West  Level Estimated
Tue 08:55:00 AM 63.8703 -27.5986 293° West  Level Estimated
Tue 08:56:00 AM 63.9190 -27.8666 293° West  Level Estimated
Tue 08:57:00 AM 63.9673 -28.1355 292° West  Level Estimated
Tue 08:58:00 AM 64.0150 -28.4053 292° West  Level Estimated
Tue 08:59:00 AM 64.0622 -28.6761 292° West  Level Estimated
Tue 09:00:00 AM 64.1089 -28.9478 292° West  Level Estimated
Tue 09:01:00 AM 64.1551 -29.2204 291° West  Level Estimated
Tue 09:02:00 AM 64.2008 -29.4938 291° West  Level Estimated
Tue 09:03:00 AM 64.2460 -29.7682 291° West  Level Estimated
Tue 09:04:00 AM 64.2907 -30.0435 291° West  Level Estimated
Tue 09:05:00 AM 64.3348 -30.3197 290° West  Level Estimated
Tue 09:06:00 AM 64.3784 -30.5967 290° West  Level Estimated
Tue 09:07:00 AM 64.4215 -30.8746 290° West  Level Estimated
Tue 09:08:00 AM 64.4641 -31.1534 290° West  Level Estimated
Tue 09:09:00 AM 64.5062 -31.4331 289° West  Level Estimated
Tue 09:10:00 AM 64.5477 -31.7136 289° West  Level Estimated
Tue 09:11:00 AM 64.5887 -31.9949 289° West  Level Estimated
Tue 09:12:00 AM 64.6291 -32.2771 289° West  Level Estimated
Tue 09:13:00 AM 64.6690 -32.5602 288° West  Level Estimated
Tue 09:14:00 AM 64.7084 -32.8441 288° West  Level Estimated
Tue 09:15:00 AM 64.7472 -33.1287 288° West  Level Estimated
Tue 09:16:00 AM 64.7855 -33.4142 288° West  Level Estimated
Tue 09:17:00 AM 64.8232 -33.7006 287° West  Level Estimated
Tue 09:18:00 AM 64.8603 -33.9877 287° West  Level Estimated
Tue 09:19:00 AM 64.8969 -34.2756 287° West  Level Estimated
Tue 09:20:00 AM 64.9330 -34.5642 287° West  Level Estimated
Tue 09:21:00 AM 64.9685 -34.8537 286° West  Level Estimated
Tue 09:22:00 AM 65.0034 -35.1439 286° West  Level Estimated
Tue 09:23:00 AM 65.0378 -35.4348 286° West  Level Estimated
Tue 09:24:00 AM 65.0716 -35.7266 285° West  Level Estimated
Tue 09:25:00 AM 65.1048 -36.0190 285° West  Level Estimated
Tue 09:26:00 AM 65.1375 -36.3122 285° West  Level Estimated
Tue 09:27:00 AM 65.1696 -36.6060 285° West  Level Estimated
Tue 09:28:00 AM 65.2011 -36.9006 284° West  Level Estimated
Tue 09:29:00 AM 65.2320 -37.1959 284° West  Level Estimated
Tue 09:30:00 AM 65.2624 -37.4919 284° West  Level Estimated
Tue 09:31:00 AM 65.2922 -37.7886 284° West  Level Estimated
Tue 09:32:00 AM 65.3213 -38.0859 283° West  Level Estimated
Tue 09:33:00 AM 65.3499 -38.3838 283° West  Level Estimated
Tue 09:34:00 AM 65.3780 -38.6824 283° West  Level Estimated
Tue 09:35:00 AM 65.4054 -38.9817 283° West  Level Estimated
Tue 09:36:00 AM 65.4322 -39.2815 282° West  Level Estimated
Tue 09:37:00 AM 65.4584 -39.5820 282° West  Level Estimated
Tue 09:38:00 AM 65.4841 -39.8830 282° West  Level Estimated
Tue 09:39:00 AM 65.5091 -40.1847 281° West  Level Estimated
Tue 09:40:00 AM 65.5335 -40.4869 281° West  Level Estimated
Tue 09:41:00 AM 65.5574 -40.7897 281° West  Level Estimated
Tue 09:42:00 AM 65.5806 -41.0930 281° West  Level Estimated
Tue 09:43:00 AM 65.6032 -41.3969 280° West  Level Estimated
Tue 09:44:00 AM 65.6253 -41.7012 280° West  Level Estimated
Tue 09:45:00 AM 65.6467 -42.0061 280° West  Level Estimated
Tue 09:46:00 AM 65.6675 -42.3115 280° West  Level Estimated
Tue 09:47:00 AM 65.6877 -42.6174 279° West  Level Estimated
Tue 09:48:00 AM 65.7072 -42.9238 279° West  Level Estimated
Tue 09:49:00 AM 65.7262 -43.2305 279° West  Level Estimated
Tue 09:50:00 AM 65.7445 -43.5378 278° West  Level Estimated
Tue 09:51:00 AM 65.7623 -43.8455 278° West  Level Estimated
Tue 09:52:00 AM 65.7794 -44.1535 278° West  Level Estimated
Tue 09:53:00 AM 65.7959 -44.4620 278° West  Level Estimated
Tue 09:54:00 AM 65.8117 -44.7709 277° West  Level Estimated
Tue 09:55:00 AM 65.8270 -45.0802 277° West  Level Estimated
Tue 09:56:00 AM 65.8416 -45.3898 277° West  Level Estimated
Tue 09:57:00 AM 65.8556 -45.6997 276° West  Level Estimated
Tue 09:58:00 AM 65.8689 -46.0100 276° West  Level Estimated
Tue 09:59:00 AM 65.8817 -46.3206 276° West  Level Estimated
Tue 10:00:00 AM 65.8938 -46.6315 276° West  Level Estimated
Tue 10:01:00 AM 65.9052 -46.9427 275° West  Level Estimated
Tue 10:02:00 AM 65.9161 -47.2542 275° West  Level Estimated
Tue 10:03:00 AM 65.9263 -47.5659 275° West  Level Estimated
Tue 10:04:00 AM 65.9359 -47.8778 274° West  Level Estimated
Tue 10:05:00 AM 65.9448 -48.1900 274° West  Level Estimated
Tue 10:06:00 AM 65.9532 -48.5024 274° West  Level Estimated
Tue 10:07:00 AM 65.9608 -48.8150 274° West  Level Estimated
Tue 10:08:00 AM 65.9679 -49.1278 273° West  Level Estimated
Tue 10:09:00 AM 65.9743 -49.4407 273° West  Level Estimated
Tue 10:10:00 AM 65.9801 -49.7538 273° West  Level Estimated
Tue 10:11:00 AM 65.9852 -50.0670 272° West  Level Estimated
Tue 10:12:00 AM 65.9897 -50.3803 272° West  Level Estimated
Tue 10:13:00 AM 65.9936 -50.6938 272° West  Level Estimated
Tue 10:14:00 AM 65.9968 -51.0073 272° West  Level Estimated
Tue 10:15:00 AM 65.9994 -51.3209 271° West  Level Estimated
Tue 10:16:00 AM 66.0014 -51.6346 271° West  Level Estimated
Tue 10:17:00 AM 66.0027 -51.9483 271° West  Level Estimated
Tue 10:18:00 AM 66.0034 -52.2620 270° West  Level Estimated
Tue 10:19:00 AM 66.0034 -52.5757 270° West  Level Estimated
Tue 10:20:00 AM 66.0028 -52.8894 270° West  Level Estimated
Tue 10:21:00 AM 66.0016 -53.2031 270° West  Level Estimated
Tue 10:22:00 AM 65.9997 -53.5168 269° West  Level Estimated
Tue 10:23:00 AM 65.9972 -53.8304 269° West  Level Estimated
Tue 10:24:00 AM 65.9940 -54.1439 269° West  Level Estimated
Tue 10:25:00 AM 65.9902 -54.4574 268° West  Level Estimated
Tue 10:26:00 AM 65.9858 -54.7707 268° West  Level Estimated
Tue 10:27:00 AM 65.9808 -55.0840 268° West  Level Estimated
Tue 10:28:00 AM 65.9751 -55.3970 268° West  Level Estimated
Tue 10:29:00 AM 65.9687 -55.7100 267° West  Level Estimated
Tue 10:30:00 AM 65.9617 -56.0228 267° West  Level Estimated
Tue 10:31:00 AM 65.9541 -56.3354 267° West  Level Estimated
Tue 10:32:00 AM 65.9457 -56.6555 266° West  Level Estimated
Tue 10:33:00 AM 65.9366 -56.9754 266° West  Level Estimated
Tue 10:34:00 AM 65.9268 -57.2951 266° West  Level Estimated
Tue 10:35:00 AM 65.9164 -57.6144 266° West  Level Estimated
Tue 10:36:00 AM 65.9053 -57.9336 265° West  Level Estimated
Tue 10:37:00 AM 65.8935 -58.2505 265° West  Level Estimated
Tue 10:38:00 AM 65.8812 -58.5672 265° West  Level Estimated
Tue 10:39:00 AM 65.8682 -58.8835 264° West  Level Estimated
Tue 10:40:00 AM 65.8546 -59.1995 264° West  Level Estimated
Tue 10:41:00 AM 65.8402 -59.5151 264° West  Level Estimated
Tue 10:42:00 AM 65.8253 -59.8304 264° West  Level Estimated
Tue 10:43:00 AM 65.8097 -60.1454 263° West  Level Estimated
Tue 10:44:00 AM 65.7935 -60.4599 263° West  Level Estimated
Tue 10:45:00 AM 65.7766 -60.7740 263° West  Level Estimated
Tue 10:46:00 AM 65.7590 -61.0877 262° West  Level Estimated
Tue 10:47:00 AM 65.7409 -61.4010 262° West  Level Estimated
Tue 10:48:00 AM 65.7221 -61.7138 262° West  Level Estimated
Tue 10:49:00 AM 65.7026 -62.0262 262° West  Level Estimated
Tue 10:50:00 AM 65.6825 -62.3381 261° West  Level Estimated
Tue 10:51:00 AM 65.6618 -62.6495 261° West  Level Estimated
Tue 10:52:00 AM 65.6404 -62.9604 261° West  Level Estimated
Tue 10:53:00 AM 65.6184 -63.2707 260° West  Level Estimated
Tue 10:54:00 AM 65.5958 -63.5806 260° West  Level Estimated
Tue 10:55:00 AM 65.5725 -63.8899 260° West  Level Estimated
Tue 10:55:46 AM 66.5833 -68.5333 258° West 500 575 36,000  Level Edmonton Center
Tue 10:56:00 AM 65.5487 -64.1986 260° West  Level Estimated
Tue 10:56:46 AM 66.5500 -68.9167 258° West 510 587 36,000  Level Edmonton Center
Tue 10:57:00 AM 65.5241 -64.5068 259° West  Level Estimated
Tue 10:57:46 AM 66.5167 -69.2667 257° West 520 598 36,000  Level Edmonton Center
Tue 10:58:00 AM 65.4990 -64.8143 259° West  Level Estimated
Tue 10:58:46 AM 66.5000 -69.6000 263° West 520 598 36,000  Level Edmonton Center
Tue 10:59:00 AM 65.4733 -65.1213 259° West  Level Estimated
Tue 10:59:46 AM 66.4667 -69.9500 257° West 510 587 36,000  Level Edmonton Center
Tue 11:00:00 AM 65.4469 -65.4277 258° West  Level Estimated
Tue 11:00:46 AM 66.4000 -70.2833 244° Southwest 520 598 36,000  Level Edmonton Center
Tue 11:01:00 AM 65.4199 -65.7334 258° West  Level Estimated
Tue 11:01:46 AM 66.3500 -70.6000 249° West 520 598 36,000  Level Edmonton Center
Tue 11:02:46 AM 66.2833 -70.9333 244° Southwest 520 598 36,000  Level Edmonton Center
Tue 11:03:46 AM 66.2333 -71.2500 249° West 520 598 36,000  Level Edmonton Center
Tue 11:04:46 AM 66.1833 -71.6167 251° West 510 587 36,000  Level Edmonton Center
Tue 11:05:46 AM 66.1167 -71.9333 243° Southwest 520 598 36,000  Level Edmonton Center
Tue 11:06:46 AM 66.0667 -72.2500 249° West 510 587 36,000  Level Edmonton Center
Tue 11:07:46 AM 66.0167 -72.5500 248° West 520 598 36,000  Level Edmonton Center
Tue 11:08:46 AM 65.9500 -72.8667 243° Southwest 500 575 36,000  Level Edmonton Center
Tue 11:09:46 AM 65.8833 -73.1833 243° Southwest 510 587 36,000  Level Edmonton Center
Tue 11:10:46 AM 65.8333 -73.5000 249° West 520 598 36,000  Level Edmonton Center
Tue 11:11:46 AM 65.7667 -73.8167 243° Southwest 520 598 36,000  Level Edmonton Center
Tue 11:12:46 AM 65.7167 -74.1167 248° West 510 587 36,000  Level Edmonton Center
Tue 11:13:46 AM 65.6500 -74.4167 242° Southwest 510 587 36,000  Level Edmonton Center
Tue 11:14:46 AM 65.5833 -74.7667 245° Southwest 510 587 36,000  Level Edmonton Center
Tue 11:15:46 AM 65.5167 -75.0667 242° Southwest 510 587 36,000  Level Edmonton Center
Tue 11:16:46 AM 65.4500 -75.3833 243° Southwest 510 587 36,000  Level Edmonton Center
Tue 11:17:46 AM 65.4000 -75.6333 244° Southwest 500 575 36,000  Level Edmonton Center
Tue 11:19:00 AM 65.3336 -75.9917 246° West  Level FlightAware Approximate
Tue 11:26:00 AM 64.9408 -77.9909 246° West  Level FlightAware Approximate
Tue 11:27:00 AM 64.8825 -78.2717 244° Southwest  Level FlightAware Approximate
Tue 11:28:00 AM 64.8237 -78.5512 244° Southwest  Level FlightAware Approximate
Tue 11:29:00 AM 64.7644 -78.8295 244° Southwest  Level FlightAware Approximate
Tue 11:30:00 AM 64.7046 -79.1066 243° Southwest  Level FlightAware Approximate
Tue 11:31:00 AM 64.6442 -79.3824 243° Southwest  Level FlightAware Approximate
Tue 11:32:00 AM 64.5833 -79.6571 243° Southwest  Level FlightAware Approximate
Tue 11:33:00 AM 64.5220 -79.9305 243° Southwest  Level FlightAware Approximate
Tue 11:34:00 AM 64.4601 -80.2027 242° Southwest  Level FlightAware Approximate
Tue 11:35:00 AM 64.3977 -80.4736 242° Southwest  Level FlightAware Approximate
Tue 11:36:00 AM 64.3348 -80.7433 242° Southwest  Level FlightAware Approximate
Tue 11:37:00 AM 64.2715 -81.0118 242° Southwest  Level FlightAware Approximate
Tue 11:38:00 AM 64.2076 -81.2790 241° Southwest  Level FlightAware Approximate
Tue 11:39:00 AM 64.1433 -81.5450 241° Southwest  Level FlightAware Approximate
Tue 11:40:00 AM 64.0785 -81.8098 241° Southwest  Level FlightAware Approximate
Tue 11:41:00 AM 64.0132 -82.0733 241° Southwest  Level FlightAware Approximate
Tue 11:42:00 AM 63.9474 -82.3356 240° Southwest  Level FlightAware Approximate
Tue 11:43:00 AM 63.8811 -82.5966 240° Southwest  Level FlightAware Approximate
Tue 11:44:00 AM 63.8144 -82.8565 240° Southwest  Level FlightAware Approximate
Tue 11:45:00 AM 63.7472 -83.1151 240° Southwest  Level FlightAware Approximate
Tue 11:46:00 AM 63.6796 -83.3725 239° Southwest  Level FlightAware Approximate
Tue 11:47:00 AM 63.6115 -83.6286 239° Southwest  Level FlightAware Approximate
Tue 11:48:00 AM 63.5429 -83.8835 239° Southwest  Level FlightAware Approximate
Tue 11:49:00 AM 63.4739 -84.1372 239° Southwest  Level FlightAware Approximate
Tue 11:50:00 AM 63.4045 -84.3896 239° Southwest  Level FlightAware Approximate
Tue 11:51:00 AM 63.3346 -84.6409 238° Southwest  Level FlightAware Approximate
Tue 11:52:00 AM 63.2643 -84.8909 238° Southwest  Level FlightAware Approximate
Tue 11:53:00 AM 63.1922 -85.1374 236° Southwest  Level FlightAware Approximate
Tue 11:54:00 AM 63.1185 -85.3814 236° Southwest  Level FlightAware Approximate
Tue 11:55:00 AM 63.0444 -85.6242 236° Southwest  Level FlightAware Approximate
Tue 11:56:00 AM 62.9699 -85.8657 236° Southwest  Level FlightAware Approximate
Tue 11:57:00 AM 62.8950 -86.1060 236° Southwest  Level FlightAware Approximate
Tue 11:58:00 AM 62.8197 -86.3450 235° Southwest  Level FlightAware Approximate
Tue 11:59:00 AM 62.7440 -86.5828 235° Southwest  Level FlightAware Approximate
Tue 12:00:00 PM 62.6679 -86.8195 235° Southwest  Level FlightAware Approximate
Tue 12:01:00 PM 62.5913 -87.0548 235° Southwest  Level FlightAware Approximate
Tue 12:02:00 PM 62.5144 -87.2890 235° Southwest  Level FlightAware Approximate
Tue 12:03:00 PM 62.4373 -87.5222 235° Southwest  Level FlightAware Approximate
Tue 12:04:00 PM 62.3605 -87.7554 235° Southwest  Level FlightAware Approximate
Tue 12:05:00 PM 62.2833 -87.9874 234° Southwest  Level FlightAware Approximate
Tue 12:06:00 PM 62.2057 -88.2181 234° Southwest  Level FlightAware Approximate
Tue 12:07:00 PM 62.1278 -88.4477 234° Southwest  Level FlightAware Approximate
Tue 12:08:00 PM 62.0495 -88.6762 234° Southwest  Level FlightAware Approximate
Tue 12:09:00 PM 61.9708 -88.9034 234° Southwest  Level FlightAware Approximate
Tue 12:10:00 PM 61.8917 -89.1295 233° Southwest  Level FlightAware Approximate
Tue 12:11:00 PM 61.8123 -89.3544 233° Southwest  Level FlightAware Approximate
Tue 12:12:00 PM 61.7325 -89.5781 233° Southwest  Level FlightAware Approximate
Tue 12:13:00 PM 61.6523 -89.8007 233° Southwest  Level FlightAware Approximate
Tue 12:14:00 PM 61.5718 -90.0221 233° Southwest  Level FlightAware Approximate
Tue 12:15:00 PM 61.4909 -90.2424 232° Southwest  Level FlightAware Approximate
Tue 12:16:00 PM 61.4097 -90.4615 232° Southwest  Level FlightAware Approximate
Tue 12:17:00 PM 61.3281 -90.6795 232° Southwest  Level FlightAware Approximate
Tue 12:18:00 PM 61.2462 -90.8964 232° Southwest  Level FlightAware Approximate
Tue 12:19:00 PM 61.1639 -91.1121 232° Southwest  Level FlightAware Approximate
Tue 12:20:00 PM 61.0813 -91.3267 232° Southwest  Level FlightAware Approximate
Tue 12:21:00 PM 60.9983 -91.5402 231° Southwest  Level FlightAware Approximate
Tue 12:22:00 PM 60.9151 -91.7526 231° Southwest  Level FlightAware Approximate
Tue 12:23:00 PM 60.8314 -91.9638 231° Southwest  Level FlightAware Approximate
Tue 12:24:00 PM 60.7475 -92.1740 231° Southwest  Level FlightAware Approximate
Tue 12:25:00 PM 60.6632 -92.3830 231° Southwest  Level FlightAware Approximate
Tue 12:26:00 PM 60.5786 -92.5910 230° Southwest  Level FlightAware Approximate
Tue 12:27:00 PM 60.4937 -92.7979 230° Southwest  Level FlightAware Approximate
Tue 12:28:00 PM 60.4084 -93.0037 230° Southwest  Level FlightAware Approximate
Tue 12:29:00 PM 60.3229 -93.2084 230° Southwest  Level FlightAware Approximate
Tue 12:30:00 PM 60.2370 -93.4120 230° Southwest  Level FlightAware Approximate
Tue 12:31:00 PM 60.1508 -93.6146 230° Southwest  Level FlightAware Approximate
Tue 12:32:00 PM 60.0643 -93.8161 229° Southwest  Level FlightAware Approximate
Tue 12:33:00 PM 59.9775 -94.0166 229° Southwest  Level FlightAware Approximate
Tue 12:34:00 PM 59.8904 -94.2160 229° Southwest  Level FlightAware Approximate
Tue 12:35:00 PM 59.8031 -94.4144 229° Southwest  Level FlightAware Approximate
Tue 12:35:31 PM 59.2500 -94.8667 228° Southwest 500 575 36,000  Level Edmonton Center
Tue 12:36:00 PM 59.7154 -94.6117 229° Southwest  Level FlightAware Approximate
Tue 12:36:31 PM 59.1667 -95.0667 231° Southwest 480 552 36,000  Level Edmonton Center
Tue 12:37:00 PM 59.6271 -94.8075 228° Southwest  Level FlightAware Approximate
Tue 12:37:31 PM 59.0833 -95.2833 233° Southwest 480 552 36,000  Level Edmonton Center
Tue 12:38:00 PM 59.5384 -95.0020 228° Southwest  Level FlightAware Approximate
Tue 12:38:31 PM 59.0167 -95.4667 235° Southwest 490 564 36,000  Level Edmonton Center
Tue 12:39:00 PM 59.4494 -95.1955 228° Southwest  Level FlightAware Approximate
Tue 12:39:31 PM 58.9167 -95.7000 230° Southwest 490 564 36,000  Level Edmonton Center
Tue 12:40:00 PM 59.3601 -95.3879 228° Southwest  Level FlightAware Approximate
Tue 12:40:31 PM 58.8333 -95.8833 229° Southwest 480 552 36,000  Level Edmonton Center
Tue 12:41:31 PM 58.7500 -96.1000 234° Southwest 480 552 36,000  Level Edmonton Center
Tue 12:42:31 PM 58.6667 -96.3000 231° Southwest 490 564 36,000  Level Edmonton Center
Tue 12:43:31 PM 58.5667 -96.5167 229° Southwest 480 552 36,000  Level Edmonton Center
Tue 12:44:31 PM 58.4833 -96.7000 229° Southwest 480 552 36,000  Level Edmonton Center
Tue 12:45:31 PM 58.4167 -96.9167 240° Southwest 480 552 36,000 400 Level Edmonton Center
Tue 12:46:31 PM 58.3000 -97.1333 224° Southwest 490 564 36,800 900 Climbing Edmonton Center
Tue 12:47:31 PM 58.2333 -97.3000 233° Southwest 490 564 37,800 600 Climbing Edmonton Center
Tue 12:48:31 PM 58.1333 -97.5333 231° Southwest 490 564 38,000 100 Climbing Edmonton Center
Tue 12:49:31 PM 58.0500 -97.7000 227° Southwest 490 564 38,000  Level Edmonton Center
Tue 12:50:31 PM 57.9667 -97.9167 234° Southwest 490 564 38,000  Level Edmonton Center
Tue 12:51:31 PM 57.8667 -98.1000 224° Southwest 490 564 38,000  Level Edmonton Center
Tue 12:52:31 PM 57.7833 -98.3000 232° Southwest 480 552 38,000  Level Edmonton Center
Tue 12:53:31 PM 57.6833 -98.5167 229° Southwest 480 552 38,000  Level Edmonton Center
Tue 12:54:31 PM 57.6000 -98.6833 227° Southwest 490 564 38,000  Level Edmonton Center
Tue 12:55:31 PM 57.5000 -98.9000 229° Southwest 480 552 38,000  Level Edmonton Center
Tue 12:56:31 PM 57.4167 -99.0667 227° Southwest 480 552 38,000  Level Edmonton Center
Tue 12:57:31 PM 57.3333 -99.2667 232° Southwest 480 552 38,000  Level Edmonton Center
Tue 12:58:31 PM 57.2333 -99.4333 222° Southwest 480 552 38,000  Level Edmonton Center
Tue 12:59:31 PM 57.1500 -99.6333 233° Southwest 480 552 38,000  Level Edmonton Center
Tue 01:00:31 PM 57.0500 -99.8167 225° Southwest 480 552 38,000  Level Edmonton Center
Tue 01:01:31 PM 56.9667 -100.0167 233° Southwest 480 552 38,000  Level Edmonton Center
Tue 01:02:31 PM 56.8833 -100.2167 233° Southwest 480 552 38,000  Level Edmonton Center
Tue 01:03:31 PM 56.8000 -100.4000 230° Southwest 470 541 38,000  Level Edmonton Center
Tue 01:04:31 PM 56.7167 -100.5667 228° Southwest 480 552 38,000  Level Edmonton Center
Tue 01:05:31 PM 56.6500 -100.7667 239° Southwest 480 552 38,000  Level Edmonton Center
Tue 01:06:31 PM 56.5500 -100.9667 228° Southwest 480 552 38,000  Level Edmonton Center
Tue 01:07:31 PM 56.4667 -101.1500 231° Southwest 470 541 38,000  Level Edmonton Center
Tue 01:08:31 PM 56.3833 -101.3500 233° Southwest 470 541 38,000  Level Edmonton Center
Tue 01:09:31 PM 56.3000 -101.5333 231° Southwest 480 552 38,000  Level Edmonton Center
Tue 01:10:31 PM 56.2167 -101.7333 233° Southwest 480 552 38,000  Level Edmonton Center
Tue 01:11:31 PM 56.1167 -101.9167 226° Southwest 480 552 38,000  Level Edmonton Center
Tue 01:12:31 PM 56.0333 -102.1167 233° Southwest 480 552 38,000  Level Edmonton Center
Tue 01:13:31 PM 55.9667 -102.3000 237° Southwest 480 552 38,000  Level Edmonton Center
Tue 01:14:31 PM 55.8833 -102.4833 231° Southwest 470 541 38,000  Level Edmonton Center
Tue 01:15:31 PM 55.8000 -102.6333 225° Southwest 480 552 38,000  Level Edmonton Center
Tue 01:16:31 PM 55.7000 -102.8500 231° Southwest 480 552 38,000  Level Edmonton Center
Tue 01:17:31 PM 55.6167 -103.0167 229° Southwest 480 552 38,000  Level Edmonton Center
Tue 01:18:31 PM 55.5333 -103.2000 231° Southwest 480 552 38,000  Level Edmonton Center
Tue 01:19:31 PM 55.4333 -103.3833 226° Southwest 470 541 38,000  Level Edmonton Center
Tue 01:20:31 PM 55.3500 -103.5667 231° Southwest 470 541 38,000  Level Edmonton Center
Tue 01:21:31 PM 55.2667 -103.7500 231° Southwest 470 541 38,000  Level Edmonton Center
Tue 01:22:31 PM 55.1667 -103.9167 224° Southwest 470 541 38,000  Level Edmonton Center
Tue 01:23:31 PM 55.0833 -104.1000 232° Southwest 470 541 38,000  Level Edmonton Center
Tue 01:24:31 PM 55.0000 -104.2833 232° Southwest 470 541 38,000  Level Edmonton Center
Tue 01:25:31 PM 54.9167 -104.4333 226° Southwest 470 541 38,000  Level Edmonton Center
Tue 01:26:31 PM 54.8333 -104.6167 232° Southwest 470 541 38,000  Level Edmonton Center
Tue 01:27:31 PM 54.7500 -104.7833 229° Southwest 470 541 38,000  Level Edmonton Center
Tue 01:28:31 PM 54.6500 -104.9667 227° Southwest 470 541 38,000  Level Edmonton Center
Tue 01:29:31 PM 54.5667 -105.1333 229° Southwest 470 541 38,000  Level Edmonton Center
Tue 01:30:31 PM 54.4833 -105.2833 226° Southwest 460 529 38,000  Level Edmonton Center
Tue 01:31:31 PM 54.4000 -105.4500 229° Southwest 460 529 38,000  Level Edmonton Center
Tue 01:32:31 PM 54.3167 -105.6333 232° Southwest 460 529 38,000  Level Edmonton Center
Tue 01:33:31 PM 54.2333 -105.7667 223° Southwest 460 529 38,000  Level Edmonton Center
Tue 01:34:31 PM 54.1167 -105.9667 225° Southwest 460 529 38,000  Level Edmonton Center
Tue 01:35:31 PM 54.0333 -106.1167 227° Southwest 460 529 38,000  Level Edmonton Center
Tue 01:36:31 PM 53.9500 -106.2833 230° Southwest 450 518 38,000  Level Edmonton Center
Tue 01:37:31 PM 53.8667 -106.4333 227° Southwest 450 518 38,000  Level Edmonton Center
Tue 01:38:31 PM 53.7833 -106.6000 230° Southwest 450 518 38,000  Level Edmonton Center
Tue 01:39:31 PM 53.6833 -106.7333 218° Southwest 440 506 38,000  Level Edmonton Center
Tue 01:40:31 PM 53.6167 -106.9000 236° Southwest 440 506 38,000  Level Edmonton Center
Tue 01:41:31 PM 53.5167 -107.0333 218° Southwest 440 506 38,000  Level Edmonton Center
Tue 01:42:31 PM 53.4500 -107.2000 236° Southwest 440 506 38,000  Level Edmonton Center
Tue 01:43:31 PM 53.3333 -107.3667 220° Southwest 440 506 38,000  Level Edmonton Center
Tue 01:44:31 PM 53.2667 -107.5167 233° Southwest 450 518 38,000  Level Edmonton Center
Tue 01:45:31 PM 53.1833 -107.6500 224° Southwest 450 518 38,000  Level Edmonton Center
Tue 01:46:31 PM 53.1000 -107.8000 227° Southwest 450 518 38,000  Level Edmonton Center
Tue 01:47:31 PM 53.0000 -107.9500 222° Southwest 450 518 38,000  Level Edmonton Center
Tue 01:48:31 PM 52.9167 -108.1000 227° Southwest 450 518 38,000  Level Edmonton Center
Tue 01:49:31 PM 52.8333 -108.2667 230° Southwest 450 518 38,000  Level Edmonton Center
Tue 01:50:31 PM 52.7333 -108.4000 219° Southwest 450 518 38,000  Level Edmonton Center
Tue 01:51:31 PM 52.6333 -108.5500 222° Southwest 460 529 38,000  Level Edmonton Center
Tue 01:52:31 PM 52.5500 -108.6833 224° Southwest 450 518 38,000  Level Edmonton Center
Tue 01:53:31 PM 52.4500 -108.8167 219° Southwest 450 518 38,000  Level Edmonton Center
Tue 01:54:31 PM 52.3667 -108.9500 224° Southwest 450 518 38,000  Level Edmonton Center
Tue 01:55:31 PM 52.2667 -109.1000 223° Southwest 450 518 38,000  Level Edmonton Center
Tue 01:56:31 PM 52.1667 -109.2333 219° Southwest 450 518 38,000  Level Edmonton Center
Tue 01:57:31 PM 52.0833 -109.3667 225° Southwest 450 518 38,000  Level Edmonton Center
Tue 01:58:31 PM 51.9667 -109.5167 218° Southwest 460 529 38,000  Level Edmonton Center
Tue 01:59:31 PM 51.8833 -109.6667 228° Southwest 460 529 38,000  Level Edmonton Center
Tue 02:00:31 PM 51.7667 -109.8000 215° Southwest 450 518 38,000  Level Edmonton Center
Tue 02:01:31 PM 51.6833 -109.9167 221° Southwest 450 518 38,000  Level Edmonton Center
Tue 02:02:31 PM 51.6000 -110.0500 225° Southwest 450 518 38,000  Level Edmonton Center
Tue 02:03:31 PM 51.5000 -110.2000 223° Southwest 450 518 38,000  Level Edmonton Center
Tue 02:04:31 PM 51.4000 -110.3167 216° Southwest 450 518 38,000  Level Edmonton Center
Tue 02:05:31 PM 51.3000 -110.4500 220° Southwest 450 518 38,000  Level Edmonton Center
Tue 02:06:31 PM 51.2000 -110.6000 223° Southwest 460 529 38,000  Level Edmonton Center
Tue 02:07:31 PM 51.1000 -110.7167 216° Southwest 460 529 38,000  Level Edmonton Center
Tue 02:08:31 PM 51.0167 -110.8667 229° Southwest 460 529 38,000  Level Edmonton Center
Tue 02:09:31 PM 50.9000 -110.9833 212° Southwest 460 529 38,000  Level Edmonton Center
Tue 02:10:31 PM 50.8167 -111.1333 229° Southwest 470 541 38,000  Level Edmonton Center
Tue 02:11:31 PM 50.7000 -111.2500 212° Southwest 470 541 38,000  Level Edmonton Center
Tue 02:12:31 PM 50.6167 -111.4000 229° Southwest 460 529 38,000  Level Edmonton Center
Tue 02:13:31 PM 50.5167 -111.5167 217° Southwest 470 541 38,000  Level Edmonton Center
Tue 02:14:31 PM 50.4167 -111.6667 224° Southwest 470 541 38,000  Level Edmonton Center
Tue 02:15:31 PM 50.3000 -111.7833 213° Southwest 470 541 38,000  Level Edmonton Center
Tue 02:16:31 PM 50.2000 -111.9167 221° Southwest 470 541 38,000  Level Edmonton Center
Tue 02:17:31 PM 50.1000 -112.0667 224° Southwest 470 541 38,000  Level Edmonton Center
Tue 02:18:31 PM 50.0000 -112.1833 217° Southwest 480 552 38,000  Level Edmonton Center
Tue 02:19:31 PM 49.9000 -112.3167 221° Southwest 480 552 38,000  Level Edmonton Center
Tue 02:20:31 PM 49.7833 -112.4333 213° Southwest 480 552 38,000  Level Edmonton Center
Tue 02:21:31 PM 49.6833 -112.5667 221° Southwest 480 552 38,000  Level Edmonton Center
Tue 02:22:31 PM 49.5833 -112.7167 224° Southwest 470 541 38,000  Level Edmonton Center
Tue 02:23:31 PM 49.4833 -112.8500 221° Southwest 460 529 38,000  Level Edmonton Center
Tue 02:24:31 PM 49.4000 -113.0000 230° Southwest 460 529 38,000 300 Level Edmonton Center
Tue 02:25:31 PM 49.3000 -113.1333 221° Southwest 460 529 38,600 800 Climbing Edmonton Center
Tue 02:26:31 PM 49.2000 -113.2500 217° Southwest 460 529 39,600 700 Climbing Edmonton Center
Tue 02:27:31 PM 49.1000 -113.3833 221° Southwest 460 529 40,000 200 Climbing Edmonton Center
Tue 02:28:31 PM 49.0333 -113.5167 233° Southwest 470 541 40,000  Level Edmonton Center
Tue 02:29:31 PM 48.9167 -113.6500 217° Southwest 470 541 40,000  Level Edmonton Center
Tue 02:30:31 PM 48.8167 -113.7833 221° Southwest 470 541 40,000  Level Edmonton Center
Tue 02:31:31 PM 48.7167 -113.9333 225° Southwest 460 529 40,000  Level Edmonton Center
Tue 02:32:31 PM 48.6500 -114.0667 233° Southwest 450 518 40,000  Level Edmonton Center
Tue 02:33:40 PM 48.5567 -114.1867 220° Southwest 465 535 40,000 -47 Level Seattle Center
Tue 02:34:38 PM 48.4783 -114.2917 222° Southwest 470 541 39,900 -63 Descending Salt Lake Center
Tue 02:35:16 PM 48.4028 -114.3964 223° Southwest 469 540 39,900 61 Level Salt Lake Center
Tue 02:36:17 PM 48.3081 -114.5239 222° Southwest 464 534 40,000 49 Climbing Salt Lake Center
Tue 02:37:19 PM 48.2139 -114.6503 222° Southwest 463 533 40,000 -49 Level Salt Lake Center
Tue 02:38:20 PM 48.1186 -114.7778 222° Southwest 467 537 39,900  Descending Salt Lake Center
Tue 02:39:22 PM 48.0236 -114.9056 222° Southwest 466 536 40,000 48 Climbing Salt Lake Center
Tue 02:40:24 PM 47.9072 -115.0606 222° Southwest 470 541 40,000 -49 Level Salt Lake Center
Tue 02:41:25 PM 47.8097 -115.1883 221° Southwest 469 540 39,900  Descending Salt Lake Center
Tue 02:42:27 PM 47.7128 -115.3156 221° Southwest 468 539 40,000 48 Climbing Salt Lake Center
Tue 02:43:29 PM 47.6147 -115.4436 221° Southwest 471 542 40,000  Level Salt Lake Center
Tue 02:44:30 PM 47.5167 -115.5714 221° Southwest 471 542 40,000  Level Salt Lake Center
Tue 02:45:32 PM 47.4164 -115.6931 219° Southwest 469 540 40,000  Level Salt Lake Center
Tue 02:46:34 PM 47.3100 -115.8078 216° Southwest 474 545 40,000  Level Salt Lake Center
Tue 02:47:36 PM 47.1828 -115.9472 217° Southwest 476 548 40,000  Level Salt Lake Center
Tue 02:48:37 PM 47.0900 -116.0447 216° Southwest 478 550 40,000  Level Salt Lake Center
Tue 02:49:39 PM 46.9606 -116.1836 216° Southwest 480 552 40,000 -48 Level Salt Lake Center
Tue 02:50:41 PM 46.8506 -116.2975 215° Southwest 482 555 39,900 -49 Descending Salt Lake Center
Tue 02:51:42 PM 46.7375 -116.4108 215° Southwest 481 554 39,900 49 Level Salt Lake Center
Tue 02:52:44 PM 46.6283 -116.5181 214° Southwest 484 557 40,000 48 Climbing Salt Lake Center
Tue 02:53:46 PM 46.5186 -116.6281 215° Southwest 481 554 40,000  Level Salt Lake Center
Tue 02:54:47 PM 46.4094 -116.7386 215° Southwest 478 550 40,000  Level Salt Lake Center
Tue 02:55:49 PM 46.3000 -116.8467 214° Southwest 478 550 40,000  Level Salt Lake Center
Tue 02:57:03 PM 46.1664 -116.9744 214° Southwest 480 552 40,000  Level Seattle Center
Tue 02:58:04 PM 46.0353 -117.1036 214° Southwest 478 550 40,000 -49 Level Seattle Center
Tue 02:59:05 PM 45.9256 -117.2111 214° Southwest 477 549 39,900  Descending Seattle Center
Tue 03:00:06 PM 45.8156 -117.3164 214° Southwest 476 548 40,000 49 Climbing Seattle Center
Tue 03:01:07 PM 45.7081 -117.4214 214° Southwest 471 542 40,000  Level Seattle Center
Tue 03:01:56 PM 45.6186 -117.5069 214° Southwest 468 539 40,000  Level Seattle Center
Tue 03:02:57 PM 45.5117 -117.6083 214° Southwest 463 533 40,000  Level Seattle Center
Tue 03:03:58 PM 45.4078 -117.7078 214° Southwest 453 521 40,000  Level Seattle Center
Tue 03:04:59 PM 45.3014 -117.8075 213° Southwest 455 524 40,000  Level Seattle Center
Tue 03:06:00 PM 45.1942 -117.9089 214° Southwest 461 531 40,000  Level Seattle Center
Tue 03:07:01 PM 45.0711 -118.0231 213° Southwest 465 535 40,000  Level Seattle Center
Tue 03:08:02 PM 44.9631 -118.1256 214° Southwest 470 541 40,000  Level Seattle Center
Tue 03:09:03 PM 44.8669 -118.2133 213° Southwest 472 543 40,000  Level Seattle Center
Tue 03:10:04 PM 44.7567 -118.3164 214° Southwest 475 547 40,000  Level Seattle Center
Tue 03:11:13 PM 44.6225 -118.4392 213° Southwest 478 550 40,000  Level Salt Lake Center
Tue 03:12:15 PM 44.5117 -118.5408 213° Southwest 476 548 40,000  Level Salt Lake Center
Tue 03:13:07 PM 44.4000 -118.6425 213° Southwest 479 551 40,000  Level Seattle Center
Tue 03:14:09 PM 44.2889 -118.7447 213° Southwest 478 550 40,000  Level Seattle Center
Tue 03:15:10 PM 44.1769 -118.8442 213° Southwest 479 551 40,000  Level Seattle Center
Tue 03:16:11 PM 44.0647 -118.9453 213° Southwest 480 552 40,000  Level Seattle Center
Tue 03:17:12 PM 43.9547 -119.0436 213° Southwest 472 543 40,000  Level Seattle Center
Tue 03:18:13 PM 43.8439 -119.1422 213° Southwest 474 545 40,000  Level Seattle Center
Tue 03:19:14 PM 43.7333 -119.2397 213° Southwest 472 543 40,000  Level Seattle Center
Tue 03:20:15 PM 43.6231 -119.3369 213° Southwest 470 541 40,000  Level Seattle Center
Tue 03:21:16 PM 43.5111 -119.4358 213° Southwest 477 549 40,000  Level Seattle Center
Tue 03:22:17 PM 43.4006 -119.5322 212° Southwest 473 544 40,000  Level Seattle Center
Tue 03:23:18 PM 43.2756 -119.6417 213° Southwest 471 542 40,000  Level Seattle Center
Tue 03:24:19 PM 43.1644 -119.7383 212° Southwest 471 542 40,000  Level Seattle Center
Tue 03:25:20 PM 43.0522 -119.8344 212° Southwest 477 549 40,000  Level Seattle Center
Tue 03:26:21 PM 42.9403 -119.9283 212° Southwest 474 545 40,000  Level Seattle Center
Tue 03:27:22 PM 42.8300 -120.0231 212° Southwest 472 543 40,000  Level Seattle Center
Tue 03:28:22 PM 42.7194 -120.1192 213° Southwest 471 542 40,000  Level Seattle Center
Tue 03:29:23 PM 42.6072 -120.2125 211° Southwest 472 543 40,000  Level Seattle Center
Tue 03:30:24 PM 42.4983 -120.3050 212° Southwest 467 537 40,000  Level Seattle Center
Tue 03:31:25 PM 42.3908 -120.3961 212° Southwest 459 528 40,000  Level Seattle Center
Tue 03:32:26 PM 42.2808 -120.4869 211° Southwest 463 533 40,000  Level Seattle Center
Tue 03:33:27 PM 42.1733 -120.5758 212° Southwest 457 526 40,000  Level Seattle Center
Tue 03:34:28 PM 42.0664 -120.6669 212° Southwest 455 524 40,000  Level Seattle Center
Tue 03:35:29 PM 41.9581 -120.7561 211° Southwest 454 522 40,000  Level Seattle Center
Tue 03:36:30 PM 41.8283 -120.8614 211° Southwest 451 519 40,000  Level Seattle Center
Tue 03:37:31 PM 41.7200 -120.9506 212° Southwest 455 524 40,000  Level Seattle Center
Tue 03:38:32 PM 41.6147 -121.0364 211° Southwest 443 510 40,000  Level Seattle Center
Tue 03:43:48 PM 41.0520 -121.4882 211° Southwest 443 510 40,000  Level FlightAware ADS-B
Tue 03:44:18 PM 40.9992 -121.5301 211° Southwest 441 507 40,000  Level FlightAware ADS-B
Tue 03:44:50 PM 40.9440 -121.5746 211° Southwest 440 506 40,000  Level FlightAware ADS-B
Tue 03:45:20 PM 40.8914 -121.6162 211° Southwest 438 504 40,000  Level FlightAware ADS-B
Tue 03:45:51 PM 40.8371 -121.6589 211° Southwest 437 503 40,000  Level FlightAware ADS-B
Tue 03:46:22 PM 40.7841 -121.7014 211° Southwest 436 502 40,000  Level FlightAware ADS-B
Tue 03:47:04 PM 40.7114 -121.7587 211° Southwest 436 502 40,000  Level FlightAware ADS-B
Tue 03:47:35 PM 40.6580 -121.7996 211° Southwest 436 502 40,000  Level FlightAware ADS-B
Tue 03:47:46 PM 40.6381 -121.8158 211° Southwest 435 501 40,000  Level FlightAware ADS-B
Tue 03:48:20 PM 40.6555 -121.8024 210° Southwest 434 499 40,000  Level FlightAware ADS-B (KSAC)
Tue 03:49:41 PM 40.4563 -121.9577 210° Southwest 431 496 40,000  Level FlightAware ADS-B (KSAC)
Tue 03:50:17 PM 40.3805 -122.0167 211° Southwest 432 497 40,000  Level FlightAware ADS-B
Tue 03:50:39 PM 40.3813 -122.0167 210° Southwest 433 498 40,000  Level FlightAware ADS-B (KSAC)
Tue 03:51:10 PM 40.2874 -122.0905 211° Southwest 434 499 40,000  Level FlightAware ADS-B
Tue 03:51:40 PM 40.2351 -122.1308 211° Southwest 436 502 40,000  Level FlightAware ADS-B
Tue 03:51:59 PM 40.2401 -122.1268 210° Southwest 435 501 40,000  Level FlightAware ADS-B (KSAC)
Tue 03:52:30 PM 40.1486 -122.1979 211° Southwest 436 502 40,000  Level FlightAware ADS-B
Tue 03:53:08 PM 40.0774 -122.2419 198° South 459 528 40,000  Level FlightAware ADS-B
Tue 03:53:40 PM 40.0350 -122.2567 193° South 467 537 40,000  Level FlightAware ADS-B (KSAC)
Tue 03:54:22 PM 39.9418 -122.2870 193° South 467 537 40,000  Level FlightAware ADS-B (KSAC)
Tue 03:55:01 PM 39.8609 -122.3123 193° South 463 533 40,000  Level FlightAware ADS-B (KSAC)
Tue 03:56:02 PM 39.7308 -122.3541 193° South 458 527 40,000  Level FlightAware ADS-B (KSAC)
Tue 03:56:41 PM 39.6477 -122.3811 193° South 456 525 40,000  Level FlightAware ADS-B (KSAC)
Tue 03:57:21 PM 39.5661 -122.4065 193° South 455 524 40,000  Level FlightAware ADS-B (KSAC)
Tue 03:58:00 PM 39.4861 -122.4320 193° South 455 524 40,000 -150 Level FlightAware ADS-B (KSAC)
Tue 03:58:41 PM 39.3993 -122.4598 193° South 456 525 39,800 -1,317 Descending FlightAware ADS-B (KSAC)
Tue 03:59:22 PM 39.3165 -122.4852 193° South 454 522 38,200 -2,370 Descending FlightAware ADS-B (KSAC)
Tue 04:00:02 PM 39.2351 -122.5108 193° South 442 509 36,600 -2,203 Descending FlightAware ADS-B (KSAC)
Tue 04:00:41 PM 39.1577 -122.5356 193° South 432 497 35,300 -2,148 Descending FlightAware ADS-B (KSAC)
Tue 04:01:23 PM 39.0792 -122.5604 193° South 425 489 33,700 -2,175 Descending FlightAware ADS-B (KSAC)
Tue 04:02:01 PM 39.0149 -122.5803 193° South 424 488 32,400 -2,308 Descending FlightAware ADS-B (KSAC)
Tue 04:02:41 PM 38.9375 -122.6047 193° South 425 489 30,700 -2,354 Descending FlightAware ADS-B (KSAC)
Tue 04:03:20 PM 38.8622 -122.6270 191° South 421 484 29,300 -2,127 Descending FlightAware ADS-B (KSAC)
Tue 04:04:00 PM 38.7843 -122.6410 184° South 410 472 27,900 -2,325 Descending FlightAware ADS-B (KSAC)
Tue 04:04:40 PM 38.7089 -122.6437 180° South 401 461 26,200 -2,444 Descending FlightAware ADS-B (KSAC)
Tue 04:05:21 PM 38.6354 -122.6443 180° South 391 450 24,600 -1,610 Descending FlightAware ADS-B (KSAC)
Tue 04:06:02 PM 38.5619 -122.6465 181° South 388 447 24,000 -1,515 Descending FlightAware ADS-B (KSAC)
Tue 04:07:00 PM 38.4569 -122.6511 182° South 377 434 22,100 -1,959 Descending FlightAware ADS-B (KSAC)
Tue 04:07:40 PM 38.3926 -122.6540 181° South 367 422 20,800 -1,902 Descending FlightAware ADS-B (KSAC)
Tue 04:08:22 PM 38.3179 -122.6570 181° South 356 410 19,500 -1,926 Descending FlightAware ADS-B (KSAC)
Tue 04:09:01 PM 38.2577 -122.6593 181° South 344 396 18,200 -1,950 Descending FlightAware ADS-B (KSAC)
Tue 04:09:42 PM 38.2196 -122.6607 181° South 334 384 16,900 -2,051 Descending FlightAware ADS-B (KSAC)
Tue 04:10:20 PM 38.1324 -122.6639 181° South 328 377 15,500 -2,051 Descending FlightAware ADS-B (KSAC)
Tue 04:11:01 PM 38.0721 -122.6661 181° South 321 369 14,200 -1,723 Descending FlightAware ADS-B (KSAC)
Tue 04:12:01 PM 37.9901 -122.6692 181° South 313 360 12,600 -1,560 Descending FlightAware ADS-B (KSAC)
Tue 04:12:41 PM 37.9273 -122.6715 181° South 307 353 11,600 -1,500 Descending FlightAware ADS-B (KSAC)
Tue 04:13:01 PM 37.8970 -122.6648 164° South 311 358 11,100 -610 Descending FlightAware ADS-B (KSAC)
Tue 04:13:40 PM 37.8892 -122.6600 139° Southeast 288 331 11,000 -197 Descending FlightAware ADS-B (KSAC)
Tue 04:14:02 PM 37.8224 -122.5900 139° Southeast 281 323 10,900 -79 Descending FlightAware ADS-B
Tue 04:14:56 PM 37.7695 -122.5340 140° Southeast 283 326 10,900  Level FlightAware ADS-B
Tue 04:16:11 PM 37.7008 -122.4610 140° Southeast 247 284 10,900  Level FlightAware ADS-B
Tue 04:16:49 PM 37.6678 -122.4250 140° Southeast 249 287 10,900  Level FlightAware ADS-B
Tue 04:17:19 PM 37.6414 -122.3970 140° Southeast 245 282 10,900  Level FlightAware ADS-B
Tue 04:17:59 PM 37.6070 -122.3610 140° Southeast 239 275 10,900 -554 Level FlightAware ADS-B
Tue 04:18:24 PM 37.5834 -122.3450 152° Southeast 229 264 10,300 -1,500 Descending FlightAware ADS-B
Tue 04:18:39 PM 37.5692 -122.3350 153° Southeast 229 264 9,900 -1,600 Descending FlightAware ADS-B
Tue 04:18:54 PM 37.5546 -122.3260 152° Southeast 229 264 9,500 -1,548 Descending FlightAware ADS-B
Tue 04:19:10 PM 37.5402 -122.3160 152° Southeast 229 264 9,100 -1,333 Descending FlightAware ADS-B
Tue 04:19:21 PM 37.5296 -122.3090 153° Southeast 229 264 8,900 -1,071 Descending FlightAware ADS-B
Tue 04:19:38 PM 37.5134 -122.2990 153° Southeast 220 253 8,600 -1,034 Descending FlightAware ADS-B
Tue 04:19:50 PM 37.5033 -122.2920 149° Southeast 218 251 8,400 -1,500 Descending FlightAware ADS-B
Tue 04:19:58 PM 37.4968 -122.2860 142° Southeast 218 251 8,100 -1,636 Descending FlightAware ADS-B
Tue 04:20:01 PM 37.4944 -122.2840 138° Southeast 219 252 8,100 -1,263 Level FlightAware ADS-B
Tue 04:20:17 PM 37.4829 -122.2690 135° Southeast 217 250 7,700 -1,355 Descending FlightAware ADS-B
Tue 04:20:32 PM 37.4719 -122.2560 136° Southeast 217 250 7,400 -1,355 Descending FlightAware ADS-B
Tue 04:20:48 PM 37.4606 -122.2420 136° Southeast 216 249 7,000 -1,161 Descending FlightAware ADS-B
Tue 04:21:03 PM 37.4495 -122.2290 136° Southeast 216 249 6,800 -800 Descending FlightAware ADS-B
Tue 04:21:18 PM 37.4388 -122.2170 137° Southeast 215 247 6,600 -889 Descending FlightAware ADS-B
Tue 04:21:30 PM 37.4302 -122.2060 136° Southeast 216 249 6,400 -1,059 Descending FlightAware ADS-B
Tue 04:21:35 PM 37.4268 -122.2010 127° Southeast 216 249 6,300 -1,200 Descending FlightAware ADS-B
Tue 04:21:40 PM 37.4244 -122.1950 119° Southeast 215 247 6,200 -750 Descending FlightAware ADS-B
Tue 04:21:43 PM 37.4233 -122.1920 109° East 214 246 6,200 -1,000 Level FlightAware ADS-B
Tue 04:21:46 PM 37.4225 -122.1880 102° East 212 244 6,100 -1,385 Descending FlightAware ADS-B
Tue 04:21:56 PM 37.4228 -122.1760 78° East 207 238 5,900 -923 Descending FlightAware ADS-B
Tue 04:21:59 PM 37.4237 -122.1730 71° East 207 238 5,900 -1,000 Level FlightAware ADS-B
Tue 04:22:02 PM 37.4250 -122.1690 63° Northeast 206 237 5,800 -1,714 Descending FlightAware ADS-B
Tue 04:22:06 PM 37.4263 -122.1670 56° Northeast 206 237 5,700 -857 Descending FlightAware ADS-B
Tue 04:22:09 PM 37.4286 -122.1630 47° Northeast 205 236 5,700 -1,000 Level FlightAware ADS-B
Tue 04:22:12 PM 37.4310 -122.1600 42° Northeast 204 235 5,600 -2,000 Descending FlightAware ADS-B
Tue 04:22:15 PM 37.4333 -122.1580 39° Northeast 203 234 5,500 -857 Descending FlightAware ADS-B
Tue 04:22:19 PM 37.4360 -122.1550 35° Northeast 202 232 5,500 -857 Level FlightAware ADS-B
Tue 04:22:22 PM 37.4384 -122.1530 31° Northeast 201 231 5,400 -2,000 Descending FlightAware ADS-B
Tue 04:22:25 PM 37.4410 -122.1520 24° Northeast 201 231 5,300 -1,500 Descending FlightAware ADS-B
Tue 04:22:30 PM 37.4449 -122.1500 15° North 199 229 5,200 -750 Descending FlightAware ADS-B
Tue 04:22:33 PM 37.4479 -122.1500 North 198 228 5,200 -1,000 Level FlightAware ADS-B
Tue 04:22:36 PM 37.4509 -122.1490 358° North 197 227 5,100 -2,000 Descending FlightAware ADS-B
Tue 04:22:39 PM 37.4536 -122.1500 352° North 196 226 5,000 -1,000 Descending FlightAware ADS-B
Tue 04:22:42 PM 37.4566 -122.1510 349° North 195 224 5,000 -1,091 Level FlightAware ADS-B
Tue 04:22:50 PM 37.4632 -122.1520 345° North 194 223 4,800 -1,500 Descending FlightAware ADS-B
Tue 04:23:02 PM 37.4733 -122.1560 345° North 193 222 4,500 -1,333 Descending FlightAware ADS-B
Tue 04:23:17 PM 37.4865 -122.1600 346° North 194 223 4,200 -1,400 Descending FlightAware ADS-B
Tue 04:23:32 PM 37.5000 -122.1640 346° North 194 223 3,800 -1,600 Descending FlightAware ADS-B
Tue 04:23:47 PM 37.5126 -122.1680 346° North 184 212 3,400 -1,655 Descending FlightAware ADS-B
Tue 04:24:01 PM 37.5238 -122.1720 346° North 180 207 3,000 -1,500 Descending FlightAware ADS-B
Tue 04:24:07 PM 37.5287 -122.1730 343° North 177 204 2,900 -600 Descending FlightAware ADS-B
Tue 04:24:11 PM 37.5320 -122.1750 334° Northwest 177 204 2,900 -600 Level FlightAware ADS-B
Tue 04:24:17 PM 37.5354 -122.1790 315° West 177 204 2,800 -1,333 Descending FlightAware ADS-B
Tue 04:24:20 PM 37.5369 -122.1810 309° West 176 203 2,700 -857 Descending FlightAware ADS-B
Tue 04:24:24 PM 37.5388 -122.1840 302° West 172 198 2,700 -667 Level FlightAware ADS-B
Tue 04:24:29 PM 37.5408 -122.1880 297° West 167 192 2,600 -750 Descending FlightAware ADS-B
Tue 04:24:40 PM 37.5444 -122.1980 295° West 168 193 2,500 -783 Descending FlightAware ADS-B
Tue 04:24:52 PM 37.5487 -122.2080 298° West 166 191 2,300 -947 Descending FlightAware ADS-B
Tue 04:24:59 PM 37.5515 -122.2140 298° West 166 191 2,200 -545 Descending FlightAware ADS-B
Tue 04:25:14 PM 37.5569 -122.2280 298° West 166 191 2,100 -480 Descending FlightAware ADS-B
Tue 04:25:24 PM 37.5604 -122.2360 298° West 162 186 2,000 -720 Descending FlightAware ADS-B
Tue 04:25:39 PM 37.5654 -122.2480 298° West 157 181 1,800 -800 Descending FlightAware ADS-B
Tue 04:25:54 PM 37.5705 -122.2600 298° West 160 184 1,600 -828 Descending FlightAware ADS-B
Tue 04:26:08 PM 37.5756 -122.2720 298° West 155 178 1,400 -923 Descending FlightAware ADS-B
Tue 04:26:20 PM 37.5794 -122.2810 298° West 150 173 1,200 -889 Descending FlightAware ADS-B
Tue 04:26:35 PM 37.5843 -122.2930 297° West 148 170 1,000 -649 Descending FlightAware ADS-B
Tue 04:26:57 PM 37.5913 -122.3100 298° West 149 171 800 -714 Descending FlightAware ADS-B
Tue 04:27:17 PM 37.5977 -122.3250 298° West 144 166 500 -750 Descending FlightAware ADS-B
Tue 04:27:29 PM 37.6014 -122.3330 297° West 142 163 400 -783 Descending FlightAware ADS-B
Tue 04:27:40 PM 37.6048 -122.3420 298° West 141 162 200 -900 Descending FlightAware ADS-B
Tue 04:27:49 PM 37.6075 -122.3480 298° West 141 162 100 -667 Descending FlightAware ADS-B

Login

Don't have an account? Register now (free) for customized features, flight alerts, and more!